UKLU

Uzhhorod International Airport

Uzhhorod, Ukraine
TAF UKLU 210202Z 2103/2112 11003MPS 9999 NSC
Issued Valid From Valid To
Apr-21 @ 02:02 UTC
(2 hours ago)
Apr-21 @ 03:00 UTC
(48 minutes ago)
Apr-21 @ 12:00 UTC
(in 8 hours)
Apr-21 @ 03:00 to Apr-21 @ 12:00
TAF UKLU 210202Z 2103/2112 11003MPS 9999 NSC
Wind Visibility Clouds
110° at 6 knots 10,000+ meters
  • No significant clouds
TAF UKLU 210202Z 2103/2112 11003MPS 9999 NSC
Issued Apr-21 @ 02:02 UTC
(2 hours ago)
Valid From Apr-21 @ 03:00 UTC
(48 minutes ago)
Valid To Apr-21 @ 12:00 UTC
(in 8 hours)
Apr-21 @ 03:00 - Apr-21 @ 12:00
Wind Visibility
110° at 6 knots 10,000+ meters
Clouds
  • No significant clouds